सभी
Portland Airport (Portland, Victoria) PTJ मौसम
|
Portland, Victoria (PTJ / YPOD)
स्वच्छ आकाश
तेज हवाएं |
|
13 °C |
PTJ Terminal Area Forecast
| Here is the undecoded forecast: 2026/05/03 18:35 YPOD 031835Z 0320/0408 34018G28KT 9999 -SHRA SCT010 BKN018 FM040200 29018G28KT 9999 -SHRA SCT010 BKN018 FM040600 25020G32KT 9999 -SHRA BKN020 TEMPO 0320/0322 9999 BKN010 INTER 0322/0406 VRB20G30KT 3000 SHRA BKN010 FEW018TCU INTER 0406/0408 25025G38KT 5000 SHRA BKN012 PROB30 TEMPO 0400/0406 VRB30G40KT 1000 TSRA BKN008 FEW018CB RMK FM032000 MOD TURB BLW 3000FT TL040200 T 12 13 14 14 Q 1004 1004 1003 1004 |
Recent PTJ METAR history
| Date | Time (AEST) | Flight Rules | Wind Dir. | Speed | Type | Height AGL (ft) | Visibility | Temp (°C) | Temp (°F) | Dew Point (°C) | Dew Point (°F) | Rel. Humid. | Pressure | Density Altitude | Remarks |
|---|---|---|---|---|---|---|---|---|---|---|---|---|---|---|---|
| 04-मई | 06:00 | VFR | 350° | 16 kt | 10000 meters | 13° | 55° | 10° | 50° | 82% | 1004 mb | 297 ft | Wind gusting to 26 KT | ||
| 04-मई | 05:00 | VFR | 360° | 15 kt | 10000 meters | 13° | 55° | 10° | 50° | 82% | 1004 mb | 297 ft | |||
| 04-मई | 04:00 | VFR | 360° | 16 kt | 10000 meters | 13° | 55° | 10° | 50° | 82% | 1004 mb | 297 ft | |||
| 04-मई | 03:00 | VFR | 360° | 15 kt | 10000 meters | 13° | 55° | 9° | 48° | 77% | 1005 mb | 267 ft | |||
| 04-मई | 02:00 | VFR | 360° | 13 kt | 10000 meters | 13° | 55° | 9° | 48° | 77% | 1006 mb | 238 ft | |||
| 04-मई | 01:00 | VFR | 360° | 13 kt | 10000 meters | 13° | 55° | 9° | 48° | 77% | 1006 mb | 238 ft | |||
| 04-मई | 00:00 | VFR | 360° | 11 kt | 10000 meters | 13° | 55° | 9° | 48° | 77% | 1007 mb | 208 ft | |||
| 03-मई | 23:00 | VFR | 360° | 13 kt | 10000 meters | 13° | 55° | 9° | 48° | 77% | 1008 mb | 179 ft | |||
| 03-मई | 22:00 | VFR | 360° | 12 kt | 10000 meters | 13° | 55° | 9° | 48° | 77% | 1008 mb | 179 ft | |||
| 03-मई | 21:00 | VFR | 360° | 12 kt | 10000 meters | 13° | 55° | 9° | 48° | 77% | 1008 mb | 179 ft | |||
| 03-मई | 20:00 | VFR | 360° | 13 kt | 10000 meters | 13° | 55° | 9° | 48° | 77% | 1008 mb | 179 ft | |||
| 03-मई | 19:00 | VFR | 360° | 13 kt | 10000 meters | 14° | 57° | 9° | 48° | 72% | 1008 mb | 299 ft | |||
| 03-मई | 18:00 | VFR | 360° | 13 kt | 10000 meters | 15° | 59° | 9° | 48° | 67% | 1007 mb | 448 ft | |||
| 03-मई | 17:00 | VFR | 350° | 11 kt | 10000 meters | 16° | 60° | 9° | 48° | 63% | 1007 mb | 568 ft | |||
| 03-मई | 16:00 | VFR | 360° | 11 kt | 10000 meters | 17° | 62° | 9° | 48° | 59% | 1007 mb | 688 ft | |||
| 03-मई | 15:00 | VFR | 350° | 11 kt | 10000 meters | 16° | 60° | 9° | 48° | 63% | 1007 mb | 568 ft | |||
| 03-मई | 14:00 | VFR | 350° | 12 kt | 10000 meters | 16° | 60° | 8° | 46° | 59% | 1007 mb | 568 ft | |||
| 03-मई | 13:00 | VFR | 340° | 15 kt | 10000 meters | 18° | 64° | 10° | 50° | 59% | 1007 mb | 808 ft | |||
| 03-मई | 12:00 | VFR | 350° | 15 kt | 10000 meters | 17° | 62° | 11° | 51° | 68% | 1008 mb | 659 ft | |||
| 03-मई | 11:00 | VFR | 350° | 14 kt | 10000 meters | 16° | 60° | 11° | 51° | 72% | 1008 mb | 539 ft | |||
| 03-मई | 10:00 | VFR | 360° | 11 kt | 10000 meters | 15° | 59° | 12° | 53° | 82% | 1008 mb | 419 ft | |||
| 03-मई | 09:00 | VFR | 10° | 7 kt | 10000 meters | 13° | 55° | 12° | 53° | 94% | 1008 mb | 179 ft | |||
| 03-मई | 08:00 | VFR | 10° | 6 kt | 10000 meters | 11° | 51° | 10° | 50° | 94% | 1008 mb | -61 ft | |||
| 03-मई | 07:00 | VFR | 20° | 7 kt | 10000 meters | 11° | 51° | 11° | 51° | 100% | 1008 mb | -61 ft |
लॉगिन
| Your browser is unsupported. अपना ब्राऊजर अपग्रेड करें |
